PWSweather.com
Personal Weather Stations
Station Observations
MAKAWAOWX1
Up Country Maui, Makawao, HI 96768

Up Country MauiMakawao, HI 96768

Lat: 20.856944, Lon: -156.3149667

Elevation: 1500

Station Type: Davis Vantage Pro

Latest ConditionsUpdated 11:10:24 AM HST Thursday, Apr 24, 2014
Currently Today's Max Today's Min Today's Average
Temperature 75.8°F24.3°C 75.8°F24.3°C 65.5°F18.6°C 68.3°F20.2°C
Dew Point 66.9°F19.4°C 66.9°F19.4°C 58.8°F14.9°C 62.3°F16.8°C
Winds 11.3 mph ENE18.2 kmh ENE 12.4 mph ENE20.0 kmh ENE - 6.7 mph 10.8 kmh
Wind Gusts 16.0 mph25.7 kmh 18.0 mph29.0 kmh - -
Humidity 74% 89% 72% 81%
Pressure 30.04 in1017.3 mb 30.05 in1017.6 mb 29.96 in1014.6 mb -
Precipitation - 0.02 in0.5 mm - -
Hour Temp Dew Point Humidity Winds Wind Gusts Pressure Precip Precip Rate Daily Precip Total
11:10 AM 75.8°F24.3°C 66.9°F19.4°C 74% 11.3 mph ENE18.2 kmh ENE 16.0 mph25.7 kmh 30.04 in1017.3 mb 0.00 in0.0 mm 0.00 in/hr0.0 mm/hr 0.02 in0.5 mm
11:00 AM 74.2°F23.4°C 66.2°F19.0°C 76% 10.6 mph E17.1 kmh E 12.0 mph19.3 kmh 30.05 in1017.6 mb 0.00 in0.0 mm 0.00 in/hr0.0 mm/hr 0.02 in0.5 mm
10:50 AM 72.4°F22.4°C 65.5°F18.6°C 79% 7.7 mph ENE12.4 kmh ENE 16.0 mph25.7 kmh 30.05 in1017.6 mb 0.00 in0.0 mm 0.00 in/hr0.0 mm/hr 0.02 in0.5 mm
10:40 AM 71.6°F22.0°C 65.8°F18.8°C 82% 11.1 mph ENE17.9 kmh ENE 16.0 mph25.7 kmh 30.05 in1017.6 mb 0.00 in0.0 mm 0.00 in/hr0.0 mm/hr 0.02 in0.5 mm
10:30 AM 72.1°F22.3°C 65.2°F18.4°C 79% 7.6 mph ESE12.2 kmh ESE 13.0 mph20.9 kmh 30.05 in1017.6 mb 0.00 in0.0 mm 0.00 in/hr0.0 mm/hr 0.02 in0.5 mm
10:20 AM 73.5°F23.1°C 65.5°F18.6°C 76% 10.0 mph NE16.1 kmh NE 14.0 mph22.5 kmh 30.05 in1017.6 mb 0.00 in0.0 mm 0.00 in/hr0.0 mm/hr 0.02 in0.5 mm
10:10 AM 74.4°F23.6°C 66.0°F18.9°C 75% 12.4 mph ENE20.0 kmh ENE 15.0 mph24.1 kmh 30.05 in1017.6 mb 0.00 in0.0 mm 0.00 in/hr0.0 mm/hr 0.02 in0.5 mm
10:00 AM 73.8°F23.2°C 66.1°F18.9°C 77% 8.1 mph ENE13.0 kmh ENE 10.0 mph16.1 kmh 30.05 in1017.6 mb 0.00 in0.0 mm 0.00 in/hr0.0 mm/hr 0.02 in0.5 mm
09:50 AM 73.2°F22.9°C 65.1°F18.4°C 76% 8.2 mph ENE13.2 kmh ENE 18.0 mph29.0 kmh 30.05 in1017.6 mb 0.00 in0.0 mm 0.00 in/hr0.0 mm/hr 0.02 in0.5 mm
09:40 AM 74.2°F23.4°C 65.7°F18.7°C 75% 10.3 mph E16.6 kmh E 17.0 mph27.4 kmh 30.05 in1017.6 mb 0.00 in0.0 mm 0.00 in/hr0.0 mm/hr 0.02 in0.5 mm
09:30 AM 74.0°F23.3°C 65.9°F18.8°C 76% 9.3 mph NE15.0 kmh NE 17.0 mph27.4 kmh 30.05 in1017.6 mb 0.00 in0.0 mm 0.00 in/hr0.0 mm/hr 0.02 in0.5 mm
09:20 AM 74.0°F23.3°C 64.4°F18.0°C 72% 9.3 mph E15.0 kmh E 15.0 mph24.1 kmh 30.05 in1017.6 mb 0.00 in0.0 mm 0.00 in/hr0.0 mm/hr 0.02 in0.5 mm
09:10 AM 73.4°F23.0°C 65.4°F18.6°C 76% 9.3 mph E15.0 kmh E 13.0 mph20.9 kmh 30.04 in1017.3 mb 0.00 in0.0 mm 0.00 in/hr0.0 mm/hr 0.02 in0.5 mm
09:00 AM 72.4°F22.4°C 65.2°F18.4°C 78% 6.4 mph E10.3 kmh E 13.0 mph20.9 kmh 30.04 in1017.3 mb 0.00 in0.0 mm 0.00 in/hr0.0 mm/hr 0.02 in0.5 mm
08:50 AM 72.5°F22.5°C 64.8°F18.2°C 77% 6.5 mph NE10.5 kmh NE 10.0 mph16.1 kmh 30.03 in1016.9 mb 0.00 in0.0 mm 0.00 in/hr0.0 mm/hr 0.02 in0.5 mm
08:40 AM 72.0°F22.2°C 64.4°F18.0°C 77% 6.2 mph ENE10.0 kmh ENE 17.0 mph27.4 kmh 30.03 in1016.9 mb 0.00 in0.0 mm 0.00 in/hr0.0 mm/hr 0.02 in0.5 mm
08:30 AM 71.6°F22.0°C 64.8°F18.2°C 79% 9.4 mph ENE15.1 kmh ENE 14.0 mph22.5 kmh 30.03 in1016.9 mb 0.00 in0.0 mm 0.00 in/hr0.0 mm/hr 0.02 in0.5 mm
08:20 AM 70.6°F21.4°C 64.5°F18.1°C 81% 10.6 mph ENE17.1 kmh ENE 12.0 mph19.3 kmh 30.03 in1016.9 mb 0.00 in0.0 mm 0.00 in/hr0.0 mm/hr 0.02 in0.5 mm
08:10 AM 69.3°F20.7°C 64.3°F17.9°C 84% 5.6 mph E9.0 kmh E 9.0 mph14.5 kmh 30.03 in1016.9 mb 0.00 in0.0 mm 0.00 in/hr0.0 mm/hr 0.02 in0.5 mm
08:00 AM 68.7°F20.4°C 63.3°F17.4°C 83% 8.2 mph NE13.2 kmh NE 12.0 mph19.3 kmh 30.02 in1016.6 mb 0.00 in0.0 mm 0.00 in/hr0.0 mm/hr 0.02 in0.5 mm
07:50 AM 67.8°F19.9°C 63.5°F17.5°C 86% 7.6 mph ENE12.2 kmh ENE 10.0 mph16.1 kmh 30.02 in1016.6 mb 0.00 in0.0 mm 0.00 in/hr0.0 mm/hr 0.02 in0.5 mm
07:40 AM 67.6°F19.8°C 62.9°F17.2°C 85% 8.2 mph NE13.2 kmh NE 13.0 mph20.9 kmh 30.02 in1016.6 mb 0.00 in0.0 mm 0.00 in/hr0.0 mm/hr 0.02 in0.5 mm
07:30 AM 67.6°F19.8°C 62.3°F16.8°C 83% 6.3 mph E10.1 kmh E 11.0 mph17.7 kmh 30.02 in1016.6 mb 0.00 in0.0 mm 0.00 in/hr0.0 mm/hr 0.02 in0.5 mm
07:20 AM 67.5°F19.7°C 61.8°F16.6°C 82% 5.4 mph E8.7 kmh E 10.0 mph16.1 kmh 30.01 in1016.3 mb 0.00 in0.0 mm 0.00 in/hr0.0 mm/hr 0.02 in0.5 mm
07:10 AM 67.4°F19.7°C 60.6°F15.9°C 79% 7.1 mph ENE11.4 kmh ENE 17.0 mph27.4 kmh 30.01 in1016.3 mb 0.00 in0.0 mm 0.00 in/hr0.0 mm/hr 0.02 in0.5 mm
07:00 AM 66.9°F19.4°C 59.8°F15.4°C 78% 4.8 mph ENE7.7 kmh ENE 15.0 mph24.1 kmh 30.01 in1016.3 mb 0.00 in0.0 mm 0.00 in/hr0.0 mm/hr 0.02 in0.5 mm
06:50 AM 66.7°F19.3°C 59.6°F15.3°C 78% 5.5 mph NE8.9 kmh NE 11.0 mph17.7 kmh 30.01 in1016.3 mb 0.00 in0.0 mm 0.00 in/hr0.0 mm/hr 0.02 in0.5 mm
06:40 AM 66.5°F19.2°C 59.8°F15.4°C 79% 7.2 mph E11.6 kmh E 13.0 mph20.9 kmh 30.00 in1015.9 mb 0.00 in0.0 mm 0.00 in/hr0.0 mm/hr 0.02 in0.5 mm
06:30 AM 66.1°F18.9°C 60.1°F15.6°C 81% 4.6 mph E7.4 kmh E 10.0 mph16.1 kmh 30.00 in1015.9 mb 0.00 in0.0 mm 0.00 in/hr0.0 mm/hr 0.02 in0.5 mm
06:20 AM 66.0°F18.9°C 60.7°F15.9°C 83% 6.4 mph E10.3 kmh E 15.0 mph24.1 kmh 29.99 in1015.6 mb 0.00 in0.0 mm 0.00 in/hr0.0 mm/hr 0.02 in0.5 mm
06:10 AM 66.1°F18.9°C 61.1°F16.2°C 84% 5.5 mph ESE8.9 kmh ESE 14.0 mph22.5 kmh 29.99 in1015.6 mb 0.00 in0.0 mm 0.00 in/hr0.0 mm/hr 0.02 in0.5 mm
06:00 AM 65.8°F18.8°C 60.8°F16.0°C 84% 9.5 mph E15.3 kmh E 11.0 mph17.7 kmh 29.99 in1015.6 mb 0.00 in0.0 mm 0.00 in/hr0.0 mm/hr 0.02 in0.5 mm
05:50 AM 65.7°F18.7°C 61.7°F16.5°C 87% 5.2 mph E8.4 kmh E 8.0 mph12.9 kmh 29.98 in1015.2 mb 0.00 in0.0 mm 0.00 in/hr0.0 mm/hr 0.02 in0.5 mm
05:40 AM 65.6°F18.7°C 62.0°F16.7°C 88% 6.7 mph E10.8 kmh E 9.0 mph14.5 kmh 29.98 in1015.2 mb 0.00 in0.0 mm 0.00 in/hr0.0 mm/hr 0.02 in0.5 mm
05:30 AM 65.6°F18.7°C 62.3°F16.8°C 89% 7.7 mph ENE12.4 kmh ENE 11.0 mph17.7 kmh 29.97 in1014.9 mb 0.00 in0.0 mm 0.00 in/hr0.0 mm/hr 0.02 in0.5 mm
05:20 AM 65.5°F18.6°C 62.2°F16.8°C 89% 4.4 mph E7.1 kmh E 8.0 mph12.9 kmh 29.97 in1014.9 mb 0.00 in0.0 mm 0.00 in/hr0.0 mm/hr 0.02 in0.5 mm
05:10 AM 65.5°F18.6°C 62.2°F16.8°C 89% 10.0 mph E16.1 kmh E 12.0 mph19.3 kmh 29.97 in1014.9 mb 0.00 in0.0 mm 0.00 in/hr0.0 mm/hr 0.02 in0.5 mm
05:00 AM 65.6°F18.7°C 62.3°F16.8°C 89% 8.7 mph E14.0 kmh E 14.0 mph22.5 kmh 29.97 in1014.9 mb 0.01 in0.3 mm 0.01 in/hr0.3 mm/hr 0.02 in0.5 mm
04:50 AM 65.9°F18.8°C 62.2°F16.8°C 88% 5.7 mph ENE9.2 kmh ENE 7.0 mph11.3 kmh 29.97 in1014.9 mb 0.00 in0.0 mm 0.00 in/hr0.0 mm/hr 0.01 in0.3 mm
04:40 AM 66.2°F19.0°C 62.5°F16.9°C 88% 8.6 mph E13.8 kmh E 11.0 mph17.7 kmh 29.97 in1014.9 mb 0.00 in0.0 mm 0.00 in/hr0.0 mm/hr 0.01 in0.3 mm
04:30 AM 66.5°F19.2°C 62.5°F16.9°C 87% 3.9 mph ENE6.3 kmh ENE 10.0 mph16.1 kmh 29.97 in1014.9 mb 0.00 in0.0 mm 0.00 in/hr0.0 mm/hr 0.01 in0.3 mm
04:20 AM 66.2°F19.0°C 61.9°F16.6°C 86% 6.1 mph E9.8 kmh E 8.0 mph12.9 kmh 29.96 in1014.6 mb 0.00 in0.0 mm 0.00 in/hr0.0 mm/hr 0.01 in0.3 mm
04:10 AM 66.3°F19.1°C 62.6°F17.0°C 88% 3.4 mph E5.5 kmh E 7.0 mph11.3 kmh 29.96 in1014.6 mb 0.00 in0.0 mm 0.00 in/hr0.0 mm/hr 0.01 in0.3 mm
04:00 AM 66.5°F19.2°C 62.5°F16.9°C 87% 4.3 mph ESE6.9 kmh ESE 10.0 mph16.1 kmh 29.96 in1014.6 mb 0.01 in0.3 mm 0.01 in/hr0.3 mm/hr 0.01 in0.3 mm
03:50 AM 66.7°F19.3°C 62.0°F16.7°C 85% 8.5 mph E13.7 kmh E 15.0 mph24.1 kmh 29.96 in1014.6 mb 0.00 in0.0 mm 0.00 in/hr0.0 mm/hr 0.00 in0.0 mm
03:40 AM 66.9°F19.4°C 61.6°F16.4°C 83% 6.6 mph E10.6 kmh E 12.0 mph19.3 kmh 29.96 in1014.6 mb 0.00 in0.0 mm 0.00 in/hr0.0 mm/hr 0.00 in0.0 mm
03:30 AM 66.8°F19.3°C 61.1°F16.2°C 82% 6.9 mph NE11.1 kmh NE 13.0 mph20.9 kmh 29.96 in1014.6 mb 0.00 in0.0 mm 0.00 in/hr0.0 mm/hr 0.00 in0.0 mm
03:20 AM 66.5°F19.2°C 61.2°F16.2°C 83% 4.9 mph E7.9 kmh E 13.0 mph20.9 kmh 29.97 in1014.9 mb 0.00 in0.0 mm 0.00 in/hr0.0 mm/hr 0.00 in0.0 mm
03:10 AM 66.3°F19.1°C 61.0°F16.1°C 83% 3.7 mph ENE6.0 kmh ENE 5.0 mph8.0 kmh 29.97 in1014.9 mb 0.00 in0.0 mm 0.00 in/hr0.0 mm/hr 0.00 in0.0 mm
03:00 AM 66.3°F19.1°C 61.7°F16.5°C 85% 6.3 mph E10.1 kmh E 9.0 mph14.5 kmh 29.97 in1014.9 mb 0.00 in0.0 mm 0.00 in/hr0.0 mm/hr 0.00 in0.0 mm
02:50 AM 66.5°F19.2°C 61.5°F16.4°C 84% 7.0 mph ENE11.3 kmh ENE 11.0 mph17.7 kmh 29.97 in1014.9 mb 0.00 in0.0 mm 0.00 in/hr0.0 mm/hr 0.00 in0.0 mm
02:40 AM 66.5°F19.2°C 61.2°F16.2°C 83% 5.7 mph ENE9.2 kmh ENE 8.0 mph12.9 kmh 29.97 in1014.9 mb 0.00 in0.0 mm 0.00 in/hr0.0 mm/hr 0.00 in0.0 mm
02:30 AM 66.6°F19.2°C 61.3°F16.3°C 83% 3.0 mph NE4.8 kmh NE 7.0 mph11.3 kmh 29.97 in1014.9 mb 0.00 in0.0 mm 0.00 in/hr0.0 mm/hr 0.00 in0.0 mm
02:20 AM 66.7°F19.3°C 61.7°F16.5°C 84% 6.1 mph ENE9.8 kmh ENE 9.0 mph14.5 kmh 29.98 in1015.2 mb 0.00 in0.0 mm 0.00 in/hr0.0 mm/hr 0.00 in0.0 mm
02:10 AM 66.8°F19.3°C 61.5°F16.4°C 83% 5.9 mph E9.5 kmh E 8.0 mph12.9 kmh 29.98 in1015.2 mb 0.00 in0.0 mm 0.00 in/hr0.0 mm/hr 0.00 in0.0 mm
02:00 AM 67.0°F19.4°C 61.3°F16.3°C 82% 2.6 mph E4.2 kmh E 10.0 mph16.1 kmh 29.99 in1015.6 mb 0.00 in0.0 mm 0.00 in/hr0.0 mm/hr 0.00 in0.0 mm
01:50 AM 66.9°F19.4°C 60.2°F15.7°C 79% 4.8 mph ENE7.7 kmh ENE 10.0 mph16.1 kmh 29.99 in1015.6 mb 0.00 in0.0 mm 0.00 in/hr0.0 mm/hr 0.00 in0.0 mm
01:40 AM 66.8°F19.3°C 60.4°F15.8°C 80% 6.4 mph E10.3 kmh E 9.0 mph14.5 kmh 29.99 in1015.6 mb 0.00 in0.0 mm 0.00 in/hr0.0 mm/hr 0.00 in0.0 mm
01:30 AM 66.6°F19.2°C 60.6°F15.9°C 81% 5.5 mph ENE8.9 kmh ENE 14.0 mph22.5 kmh 29.99 in1015.6 mb 0.00 in0.0 mm 0.00 in/hr0.0 mm/hr 0.00 in0.0 mm
01:20 AM 66.4°F19.1°C 60.4°F15.8°C 81% 4.0 mph ENE6.4 kmh ENE 7.0 mph11.3 kmh 29.99 in1015.6 mb 0.00 in0.0 mm 0.00 in/hr0.0 mm/hr 0.00 in0.0 mm
01:10 AM 66.3°F19.1°C 60.3°F15.7°C 81% 7.3 mph E11.7 kmh E 9.0 mph14.5 kmh 29.99 in1015.6 mb 0.00 in0.0 mm 0.00 in/hr0.0 mm/hr 0.00 in0.0 mm
01:00 AM 66.4°F19.1°C 59.7°F15.4°C 79% 5.6 mph E9.0 kmh E 11.0 mph17.7 kmh 29.99 in1015.6 mb 0.00 in0.0 mm 0.00 in/hr0.0 mm/hr 0.00 in0.0 mm
12:50 AM 66.4°F19.1°C 59.7°F15.4°C 79% 5.7 mph ENE9.2 kmh ENE 15.0 mph24.1 kmh 30.00 in1015.9 mb 0.00 in0.0 mm 0.00 in/hr0.0 mm/hr 0.00 in0.0 mm
12:40 AM 66.1°F18.9°C 59.4°F15.2°C 79% 4.0 mph E6.4 kmh E 11.0 mph17.7 kmh 30.00 in1015.9 mb 0.00 in0.0 mm 0.00 in/hr0.0 mm/hr 0.00 in0.0 mm
12:30 AM 66.2°F19.0°C 59.1°F15.1°C 78% 1.4 mph E2.3 kmh E 8.0 mph12.9 kmh 30.01 in1016.3 mb 0.00 in0.0 mm 0.00 in/hr0.0 mm/hr 0.00 in0.0 mm
12:20 AM 66.1°F18.9°C 59.4°F15.2°C 79% 3.6 mph E5.8 kmh E 7.0 mph11.3 kmh 30.01 in1016.3 mb 0.00 in0.0 mm 0.00 in/hr0.0 mm/hr 0.00 in0.0 mm
12:10 AM 66.2°F19.0°C 59.2°F15.1°C 78% 4.7 mph ENE7.6 kmh ENE 6.0 mph9.7 kmh 30.01 in1016.3 mb 0.00 in0.0 mm 0.00 in/hr0.0 mm/hr 0.00 in0.0 mm
12:00 AM 66.2°F19.0°C 58.8°F14.9°C 77% 3.2 mph ENE5.1 kmh ENE 9.0 mph14.5 kmh 30.01 in1016.3 mb 0.00 in0.0 mm 0.00 in/hr0.0 mm/hr 0.00 in0.0 mm